Time;durP1;ratioP1;P1;durP2;ratioP2;P2;SDS_P1;SDS_P2;PMS_P1;PMS_P2;Temp;Humidity;BMP_temperature;BMP_pressure;BME280_temperature;BME280_humidity;BME280_pressure;Samples;Min_cycle;Max_cycle;Signal;HPM_P1;HPM_P2
2022/06/17 00:00:48;;;;;;;;;8.00;7.00;;;;;26.40;34.79;101817.03;5052528;28;47067;-86
2022/06/17 00:03:14;;;;;;;;;11.00;8.67;;;;;26.60;34.52;101855.34;5056224;28;45491;-86
2022/06/17 00:05:39;;;;;;;;;8.00;8.00;;;;;26.42;35.18;101833.31;5055658;28;45469;-85
2022/06/17 00:08:11;;;;;;;;;8.33;8.33;;;;;26.43;34.93;101835.03;5037822;28;45592;-86
2022/06/17 00:10:36;;;;;;;;;10.67;10.67;;;;;26.29;35.10;101828.09;5055372;28;47118;-85
2022/06/17 00:13:02;;;;;;;;;10.00;8.67;;;;;26.37;35.09;101850.13;5054381;28;45571;-86
2022/06/17 00:15:27;;;;;;;;;11.00;9.33;;;;;26.39;35.81;101847.28;5056049;28;45396;-86
2022/06/17 00:20:22;;;;;;;;;9.00;9.00;;;;;26.38;35.28;101842.78;5055522;28;45451;-87
2022/06/17 00:22:47;;;;;;;;;9.67;9.67;;;;;26.23;35.69;101818.63;5044665;28;45514;-85
2022/06/17 00:25:35;;;;;;;;;9.33;9.33;;;;;26.31;35.74;101840.63;5055381;28;45529;-85
2022/06/17 00:28:01;;;;;;;;;10.00;10.00;;;;;26.17;35.95;101821.91;5055674;28;45314;-85
2022/06/17 00:30:30;;;;;;;;;7.33;7.33;;;;;26.26;35.53;101848.41;5054471;28;45553;-85
2022/06/17 00:32:58;;;;;;;;;9.50;9.50;;;;;26.24;35.94;101844.09;5036481;28;45535;-86
2022/06/17 00:35:28;;;;;;;;;9.33;9.00;;;;;26.21;36.39;101842.50;5055022;28;45450;-86
2022/06/17 00:37:54;;;;;;;;;8.67;8.00;;;;;26.18;36.29;101845.53;5055711;28;45501;-85
2022/06/17 00:40:23;;;;;;;;;13.33;10.00;;;;;26.15;36.57;101845.78;5055087;28;45447;-86
2022/06/17 00:42:49;;;;;;;;;9.33;8.33;;;;;26.13;36.10;101844.22;5055172;28;45282;-86
2022/06/17 00:45:26;;;;;;;;;13.67;12.00;;;;;26.07;36.29;101842.91;5055516;28;45339;-86
2022/06/17 00:48:03;;;;;;;;;10.67;9.33;;;;;26.04;36.73;101841.34;5057143;28;45431;-85
2022/06/17 00:50:50;;;;;;;;;11.33;10.33;;;;;25.97;36.82;101836.59;5058330;28;45431;-85
2022/06/17 00:53:20;;;;;;;;;9.00;9.00;;;;;25.97;36.62;101839.31;5058680;28;45396;-85
2022/06/17 00:56:11;;;;;;;;;11.33;10.00;;;;;25.93;36.32;101832.41;5058798;28;45572;-86
2022/06/17 00:59:00;;;;;;;;;12.00;10.33;;;;;25.94;36.92;101845.03;5058702;28;45403;-86
2022/06/17 01:01:29;;;;;;;;;8.33;8.33;;;;;25.87;36.80;101833.81;5055286;28;47162;-86
2022/06/17 01:04:00;;;;;;;;;8.67;8.67;;;;;25.74;36.77;101825.00;5058408;28;45475;-86
2022/06/17 01:06:32;;;;;;;;;10.00;10.00;;;;;25.87;36.31;101851.09;5057642;28;45493;-86
2022/06/17 01:11:47;;;;;;;;;10.67;10.67;;;;;25.75;36.87;101838.50;5058086;28;46436;-86
2022/06/17 01:14:15;;;;;;;;;8.33;8.33;;;;;25.74;37.00;101835.91;5057536;28;45578;-85
2022/06/17 01:16:43;;;;;;;;;9.67;9.67;;;;;25.79;37.29;101856.34;5058033;28;45476;-85
2022/06/17 01:19:21;;;;;;;;;13.33;10.67;;;;;25.81;37.41;101859.78;5053603;28;45345;-86
2022/06/17 01:22:11;;;;;;;;;12.00;11.33;;;;;25.52;36.86;101809.69;5054883;28;47195;-86
2022/06/17 01:24:37;;;;;;;;;8.00;8.00;;;;;25.79;36.57;101855.47;5054646;28;45369;-85
2022/06/17 01:27:03;;;;;;;;;8.33;8.33;;;;;25.63;37.02;101835.00;5057998;28;45443;-86
2022/06/17 01:29:30;;;;;;;;;12.33;10.00;;;;;25.76;36.46;101859.34;5057801;28;45393;-86
2022/06/17 01:31:56;;;;;;;;;8.00;5.00;;;;;25.73;36.60;101856.03;5057764;28;46149;-85
2022/06/17 01:34:22;;;;;;;;;9.33;7.67;;;;;25.66;36.63;101848.41;5057714;28;45467;-85
2022/06/17 01:36:49;;;;;;;;;13.00;11.00;;;;;25.66;36.85;101847.53;5058514;28;45381;-86
2022/06/17 01:39:16;;;;;;;;;9.00;9.00;;;;;25.62;36.34;101841.50;5057902;28;45484;-86
2022/06/17 01:41:43;;;;;;;;;7.00;7.00;;;;;25.72;36.66;101859.78;5057245;28;47141;-86
2022/06/17 01:44:22;;;;;;;;;9.00;9.00;;;;;25.63;36.58;101845.94;5057975;28;45265;-85
2022/06/17 01:46:54;;;;;;;;;12.67;11.00;;;;;25.62;37.18;101851.56;5057669;28;45499;-85
2022/06/17 01:49:23;;;;;;;;;5.33;5.33;;;;;25.68;36.78;101865.53;5058172;28;45348;-85
2022/06/17 01:52:03;;;;;;;;;11.67;8.33;;;;;25.64;37.19;101877.72;5057639;28;45802;-86
2022/06/17 01:54:36;;;;;;;;;8.33;8.33;;;;;25.53;37.13;101861.44;5055729;28;45601;-85
2022/06/17 01:57:05;;;;;;;;;8.67;8.67;;;;;25.61;37.59;101883.44;5056021;28;45365;-85
2022/06/17 01:59:42;;;;;;;;;10.67;10.00;;;;;25.49;37.38;101860.81;5057156;28;45509;-86
2022/06/17 02:02:13;;;;;;;;;5.00;5.00;;;;;25.46;37.17;101861.09;5057247;28;45466;-85
2022/06/17 02:04:50;;;;;;;;;8.33;8.00;;;;;25.42;37.33;101862.38;5057352;28;45424;-86
2022/06/17 02:07:22;;;;;;;;;11.33;9.33;;;;;25.55;37.47;101903.09;5052529;28;45337;-85
2022/06/17 02:09:48;;;;;;;;;10.00;9.33;;;;;25.54;37.30;101901.38;5057531;28;45441;-85
2022/06/17 02:12:16;;;;;;;;;12.33;10.33;;;;;25.52;37.63;101892.47;5057413;28;46862;-86
2022/06/17 02:14:42;;;;;;;;;11.67;10.67;;;;;25.44;37.62;101879.47;5056978;28;45686;-86
2022/06/17 02:17:08;;;;;;;;;10.00;10.00;;;;;25.45;37.78;101896.72;5057226;28;45570;-85
2022/06/17 02:19:37;;;;;;;;;13.00;10.00;;;;;25.46;37.92;101910.25;5038975;28;45550;-86
2022/06/17 02:22:12;;;;;;;;;10.00;8.67;;;;;25.40;37.77;101899.00;5057031;28;47391;-85
2022/06/17 02:24:39;;;;;;;;;10.00;9.67;;;;;25.31;38.29;101889.78;5053668;28;45375;-85
2022/06/17 02:27:07;;;;;;;;;8.00;7.00;;;;;25.32;38.15;101896.09;5056221;28;45424;-86
2022/06/17 02:29:35;;;;;;;;;10.00;10.00;;;;;25.34;38.26;101896.84;5039381;28;45448;-85
2022/06/17 02:32:05;;;;;;;;;11.67;8.67;;;;;25.34;38.16;101910.47;5057008;28;47037;-85
2022/06/17 02:34:30;;;;;;;;;9.00;9.00;;;;;25.34;38.07;101913.22;5056992;28;49931;-85
2022/06/17 02:37:19;;;;;;;;;7.00;7.00;;;;;25.32;38.13;101898.81;5056920;28;45297;-86
2022/06/17 02:39:48;;;;;;;;;9.67;9.67;;;;;25.14;38.17;101873.97;5053059;28;45465;-86
2022/06/17 02:42:17;;;;;;;;;9.00;9.00;;;;;25.26;38.39;101902.94;5051695;28;46220;-85
2022/06/17 02:44:42;;;;;;;;;10.33;9.00;;;;;25.17;38.46;101890.06;5054611;28;45476;-86
2022/06/17 02:47:10;;;;;;;;;7.00;7.00;;;;;25.22;38.46;101915.16;5056928;28;45457;-85
2022/06/17 02:49:36;;;;;;;;;9.00;9.00;;;;;25.15;38.57;101911.19;5056966;28;45487;-85
2022/06/17 02:52:12;;;;;;;;;10.33;10.33;;;;;25.17;38.54;101909.16;5056278;28;46164;-86
2022/06/17 02:54:41;;;;;;;;;9.33;9.00;;;;;25.00;38.52;101886.09;5052679;28;45554;-85
2022/06/17 02:57:13;;;;;;;;;13.67;13.67;;;;;25.10;38.61;101905.25;5056697;28;45465;-85
2022/06/17 02:59:48;;;;;;;;;11.33;10.00;;;;;25.05;38.94;101911.09;5038765;28;45604;-85
2022/06/17 03:02:26;;;;;;;;;9.33;9.33;;;;;25.04;39.23;101912.13;5056267;28;47701;-85
2022/06/17 03:04:53;;;;;;;;;10.67;9.67;;;;;24.91;39.42;101881.44;5046085;28;45503;-86
2022/06/17 03:07:22;;;;;;;;;10.00;9.00;;;;;24.87;39.33;101888.16;5056670;28;45522;-86
2022/06/17 03:09:49;;;;;;;;;9.33;9.33;;;;;24.99;39.21;101904.31;5055322;28;45698;-86
2022/06/17 03:12:28;;;;;;;;;9.00;9.00;;;;;24.96;39.63;101898.25;5056729;28;46224;-86
2022/06/17 03:15:05;;;;;;;;;10.00;10.00;;;;;24.81;39.24;101870.47;5056074;28;45521;-85
2022/06/17 03:17:34;;;;;;;;;10.00;10.00;;;;;24.70;39.68;101852.31;5056026;28;45455;-86
2022/06/17 03:20:02;;;;;;;;;13.00;10.67;;;;;24.69;39.47;101857.88;5056463;28;45498;-85
2022/06/17 03:22:29;;;;;;;;;11.33;10.33;;;;;24.59;39.71;101846.91;5055558;28;47402;-86
2022/06/17 03:25:02;;;;;;;;;10.00;9.33;;;;;24.71;39.63;101862.22;5056079;28;46114;-85
2022/06/17 03:27:47;;;;;;;;;9.67;9.00;;;;;24.80;39.98;101882.38;5055575;28;45552;-85
2022/06/17 03:30:22;;;;;;;;;7.33;7.33;;;;;24.80;40.22;101882.38;5055875;28;45463;-85
2022/06/17 03:32:53;;;;;;;;;10.33;10.33;;;;;24.66;39.77;101856.28;5055858;28;45644;-86
2022/06/17 03:35:25;;;;;;;;;9.00;9.00;;;;;24.74;40.08;101869.25;5056171;28;45687;-85
2022/06/17 03:38:01;;;;;;;;;13.33;13.33;;;;;24.67;40.27;101855.28;5045471;28;45487;-86
2022/06/17 03:40:41;;;;;;;;;10.00;10.00;;;;;24.58;40.35;101840.59;5056295;28;45537;-85
2022/06/17 03:43:16;;;;;;;;;9.00;9.00;;;;;24.53;40.00;101847.44;5055732;28;46400;-85
2022/06/17 03:45:45;;;;;;;;;9.33;8.33;;;;;24.64;40.46;101880.94;5052563;28;45438;-85
2022/06/17 03:48:55;;;;;;;;;9.67;9.67;;;;;24.66;40.02;101894.47;5056081;28;45403;-85
2022/06/17 03:51:24;;;;;;;;;12.33;10.67;;;;;24.69;40.19;101896.06;5049872;28;45757;-85
2022/06/17 03:53:50;;;;;;;;;9.00;8.00;;;;;24.56;40.74;101877.13;5054967;28;48495;-85
2022/06/17 03:56:23;;;;;;;;;8.67;8.67;;;;;24.57;40.62;101885.19;5055664;28;45511;-85
2022/06/17 03:58:50;;;;;;;;;11.67;9.33;;;;;24.66;40.83;101907.25;5044834;28;45432;-86
2022/06/17 04:01:19;;;;;;;;;10.33;9.33;;;;;24.61;40.75;101904.91;5055973;28;45384;-85
2022/06/17 04:03:53;;;;;;;;;10.00;10.00;;;;;24.59;40.53;101907.75;5055677;28;46322;-85
2022/06/17 04:06:25;;;;;;;;;10.00;10.00;;;;;24.55;40.86;101891.78;5056176;28;45495;-85
2022/06/17 04:08:58;;;;;;;;;9.67;9.00;;;;;24.56;41.37;101908.03;5037478;28;45483;-85
2022/06/17 04:11:35;;;;;;;;;8.33;7.33;;;;;24.40;41.11;101878.44;5055845;28;45589;-86
2022/06/17 04:14:05;;;;;;;;;14.67;9.33;;;;;24.46;41.48;101885.19;5055458;28;45480;-85
2022/06/17 04:16:46;;;;;;;;;13.67;11.00;;;;;24.51;41.42;101891.16;5055583;28;45388;-86
2022/06/17 04:19:18;;;;;;;;;11.00;11.00;;;;;24.44;41.53;101887.19;5050763;28;45376;-85
2022/06/17 04:21:43;;;;;;;;;10.33;10.33;;;;;24.47;41.46;101899.72;5054140;28;45687;-85
2022/06/17 04:24:18;;;;;;;;;14.00;10.67;;;;;24.45;41.18;101888.94;5059012;28;46175;-85
2022/06/17 04:26:46;;;;;;;;;9.00;8.00;;;;;24.34;41.30;101869.91;5058727;28;45502;-85
2022/06/17 04:29:19;;;;;;;;;12.00;11.33;;;;;24.48;41.66;101896.88;5059104;28;45482;-85
2022/06/17 04:31:51;;;;;;;;;13.33;12.00;;;;;24.47;41.23;101897.88;5059129;28;45649;-86
2022/06/17 04:34:18;;;;;;;;;11.33;10.00;;;;;24.44;41.80;101906.28;5058477;28;47574;-85
2022/06/17 04:36:46;;;;;;;;;10.00;10.00;;;;;24.45;41.47;101902.56;5058924;28;45399;-85
2022/06/17 04:39:22;;;;;;;;;10.33;7.33;;;;;24.46;41.68;101906.16;5059292;28;45357;-86
2022/06/17 04:41:51;;;;;;;;;9.33;9.33;;;;;24.39;41.51;101894.91;5059035;28;45460;-85
2022/06/17 04:44:17;;;;;;;;;12.33;9.33;;;;;24.42;41.85;101903.69;5058590;28;47338;-85
2022/06/17 04:46:51;;;;;;;;;11.00;9.67;;;;;24.41;42.04;101901.09;5058480;28;45558;-85
2022/06/17 04:49:26;;;;;;;;;12.00;9.33;;;;;24.44;42.18;101907.16;5054631;28;45854;-84
2022/06/17 04:52:04;;;;;;;;;8.67;8.67;;;;;24.22;41.50;101869.94;5058534;28;45648;-85
2022/06/17 04:54:31;;;;;;;;;8.33;8.33;;;;;24.39;41.52;101911.25;5058144;28;45597;-85
2022/06/17 04:56:59;;;;;;;;;10.33;8.67;;;;;24.41;42.20;101912.00;5058011;28;45798;-85
2022/06/17 04:59:33;;;;;;;;;10.00;10.00;;;;;24.42;42.16;101905.56;5055863;28;45504;-85
2022/06/17 05:02:02;;;;;;;;;13.33;10.33;;;;;24.31;41.71;101892.81;5059234;28;45331;-85
2022/06/17 05:04:27;;;;;;;;;11.67;11.67;;;;;24.27;42.06;101876.84;5055326;28;46974;-84
2022/06/17 05:06:53;;;;;;;;;12.00;11.00;;;;;24.39;41.73;101889.44;5058749;28;48753;-85
2022/06/17 05:09:24;;;;;;;;;11.33;10.00;;;;;24.40;42.17;101883.88;5059612;28;45415;-85
2022/06/17 05:11:55;;;;;;;;;12.00;9.67;;;;;24.51;42.00;101902.06;5057722;28;45451;-85
2022/06/17 05:14:36;;;;;;;;;11.33;8.67;;;;;24.53;41.50;101904.66;5057495;28;46788;-85
2022/06/17 05:17:01;;;;;;;;;11.33;10.67;;;;;24.56;41.63;101898.94;5037197;28;45384;-84
2022/06/17 05:19:27;;;;;;;;;10.67;9.67;;;;;24.51;41.75;101882.97;5057112;28;45408;-84
2022/06/17 05:21:53;;;;;;;;;9.00;9.00;;;;;24.43;41.84;101860.94;5059325;28;45635;-83
2022/06/17 05:24:18;;;;;;;;;9.00;8.67;;;;;24.58;41.47;101886.06;5058394;28;47088;-84
2022/06/17 05:26:43;;;;;;;;;9.33;9.33;;;;;24.49;41.96;101876.81;5057360;28;45547;-83
2022/06/17 05:29:09;;;;;;;;;11.33;11.33;;;;;24.59;41.80;101885.06;5057515;28;53804;-82
2022/06/17 05:31:35;;;;;;;;;11.67;10.33;;;;;24.54;41.91;101865.53;5057718;28;45421;-84
2022/06/17 05:34:02;;;;;;;;;12.00;10.00;;;;;24.63;42.03;101881.06;5050517;28;47128;-84
2022/06/17 05:36:27;;;;;;;;;13.33;13.33;;;;;24.55;41.99;101873.56;5038572;28;45414;-84
2022/06/17 05:38:53;;;;;;;;;15.33;11.33;;;;;24.59;41.88;101866.84;5057062;28;45477;-84
2022/06/17 05:41:22;;;;;;;;;7.33;7.33;;;;;24.70;41.78;101879.59;5057680;28;45446;-84
2022/06/17 05:43:49;;;;;;;;;11.33;11.00;;;;;24.73;42.06;101876.59;5056617;28;47006;-84
2022/06/17 05:46:15;;;;;;;;;11.33;11.33;;;;;24.80;42.19;101879.66;5057103;28;45638;-84
2022/06/17 05:48:40;;;;;;;;;12.00;12.00;;;;;24.85;41.80;101877.38;5057562;28;45486;-84
2022/06/17 05:51:06;;;;;;;;;15.33;12.33;;;;;24.90;42.18;101879.72;5057186;28;45622;-85
2022/06/17 05:53:31;;;;;;;;;11.67;11.00;;;;;24.84;41.86;101873.81;5056814;28;47015;-85
2022/06/17 05:55:56;;;;;;;;;14.33;9.00;;;;;24.90;41.28;101886.03;5036815;28;45663;-85
2022/06/17 05:58:22;;;;;;;;;11.00;9.67;;;;;24.96;41.83;101881.88;5056772;28;45511;-84
2022/06/17 06:00:48;;;;;;;;;12.00;12.00;;;;;25.00;41.79;101880.63;5056766;28;45517;-85
2022/06/17 06:03:20;;;;;;;;;12.00;12.00;;;;;25.02;41.22;101881.38;5056146;28;45585;-84
2022/06/17 06:05:46;;;;;;;;;12.00;12.00;;;;;25.06;41.50;101889.16;5053613;28;45622;-84
2022/06/17 06:08:11;;;;;;;;;11.00;11.00;;;;;25.10;40.61;101888.88;5054277;28;45352;-84
2022/06/17 06:10:37;;;;;;;;;10.33;10.33;;;;;25.14;40.11;101882.16;5056351;28;45705;-84
2022/06/17 06:13:04;;;;;;;;;8.67;7.67;;;;;25.15;39.66;101867.53;5056331;28;45509;-82
2022/06/17 06:15:38;;;;;;;;;6.00;6.00;;;;;25.24;39.16;101869.50;5057083;28;45702;-83
2022/06/17 06:18:05;;;;;;;;;8.00;8.00;;;;;25.19;39.27;101839.88;5037793;28;45563;-83
2022/06/17 06:20:30;;;;;;;;;7.33;7.00;;;;;25.34;38.12;101861.34;5035342;28;45507;-82
2022/06/17 06:22:56;;;;;;;;;7.00;7.00;;;;;25.31;38.21;101858.88;5055801;28;46113;-83
2022/06/17 06:25:23;;;;;;;;;8.00;7.00;;;;;25.21;38.12;101828.81;5044340;28;45984;-83
2022/06/17 06:27:48;;;;;;;;;7.33;7.33;;;;;25.40;37.54;101850.75;5058677;28;45468;-87
2022/06/17 06:30:32;;;;;;;;;7.00;5.67;;;;;25.27;38.14;101814.63;5057335;28;45570;-85
2022/06/17 06:33:00;;;;;;;;;6.67;6.67;;;;;25.53;38.16;101853.22;5057305;28;55555;-82
2022/06/17 06:35:30;;;;;;;;;7.33;7.33;;;;;25.59;38.37;101851.81;5055869;28;45419;-82
2022/06/17 06:37:55;;;;;;;;;5.00;5.00;;;;;25.42;38.03;101809.66;5048178;28;45491;-81
2022/06/17 06:40:21;;;;;;;;;6.00;6.00;;;;;25.66;38.10;101831.13;5049130;28;45496;-79
2022/06/17 06:42:47;;;;;;;;;7.00;5.00;;;;;25.70;37.17;101840.78;5049749;28;45422;-87
2022/06/17 06:45:23;;;;;;;;;6.67;6.67;;;;;25.66;36.80;101840.22;5057983;28;45866;-85
2022/06/17 06:47:50;;;;;;;;;7.00;6.00;;;;;25.66;36.95;101832.03;5050803;28;46364;-84
2022/06/17 06:50:19;;;;;;;;;7.00;6.00;;;;;25.81;36.88;101851.59;5055597;28;45460;-85
2022/06/17 06:52:45;;;;;;;;;7.33;7.00;;;;;25.89;36.60;101848.19;5049378;28;45726;-88
2022/06/17 06:55:12;;;;;;;;;7.00;7.00;;;;;25.94;36.52;101851.38;5049358;28;45408;-91
2022/06/17 06:57:59;;;;;;;;;6.33;6.33;;;;;25.85;36.90;101838.53;5061738;28;45447;-96
2022/06/17 07:00:34;;;;;;;;;7.00;6.00;;;;;25.96;36.53;101851.22;5062252;28;45447;-91
2022/06/17 07:03:03;;;;;;;;;5.00;5.00;;;;;25.98;36.64;101854.69;5060823;28;46116;-91
2022/06/17 07:05:30;;;;;;;;;7.00;7.00;;;;;26.13;36.37;101863.34;5063359;28;45451;-94
2022/06/17 07:07:56;;;;;;;;;8.67;7.00;;;;;26.16;35.86;101865.81;5101535;22;45798;-95
2022/06/17 07:10:28;;;;;;;;;6.00;6.00;;;;;26.14;36.54;101859.63;5078304;28;45476;-94
2022/06/17 07:12:54;;;;;;;;;8.33;7.67;;;;;26.16;36.34;101860.34;5077290;28;46374;-95
2022/06/17 07:15:22;;;;;;;;;7.33;6.67;;;;;26.17;36.06;101857.44;5075545;28;45336;-93
2022/06/17 07:18:03;;;;;;;;;7.67;6.00;;;;;26.16;35.77;101842.06;5069602;28;46103;-88
2022/06/17 07:20:37;;;;;;;;;8.00;6.00;;;;;26.40;35.63;101871.72;5076273;28;45475;-88
2022/06/17 07:23:06;;;;;;;;;7.33;7.00;;;;;26.47;35.68;101870.13;5075996;28;46374;-90
2022/06/17 07:25:32;;;;;;;;;6.33;6.33;;;;;26.52;35.55;101864.22;5066579;28;45334;-90
2022/06/17 07:27:57;;;;;;;;;7.00;6.67;;;;;26.38;34.92;101843.66;5056880;28;45724;-88
2022/06/17 07:30:23;;;;;;;;;8.00;8.00;;;;;26.32;35.07;101823.22;5066618;28;45317;-88
2022/06/17 07:32:48;;;;;;;;;8.33;8.33;;;;;26.43;35.04;101838.63;5054921;28;47603;-87
2022/06/17 07:35:15;;;;;;;;;8.33;6.33;;;;;26.72;35.78;101882.41;5075248;28;45646;-91
2022/06/17 07:40:27;;;;;;;;;7.67;7.00;;;;;26.70;35.38;101864.41;5073103;28;45660;-87
2022/06/17 07:42:53;;;;;;;;;8.00;6.00;;;;;26.79;34.81;101865.41;5065745;28;46986;-88
2022/06/17 07:45:19;;;;;;;;;7.33;7.33;;;;;26.85;34.57;101873.88;5075716;28;45520;-89
2022/06/17 07:47:48;;;;;;;;;7.33;7.33;;;;;26.74;35.06;101849.44;5073290;28;45548;-89
2022/06/17 07:50:18;;;;;;;;;8.00;8.00;;;;;26.94;34.53;101874.88;5076069;28;45782;-90
2022/06/17 07:52:44;;;;;;;;;5.67;5.67;;;;;27.14;35.54;101905.84;5057508;28;48534;-91
2022/06/17 07:55:10;;;;;;;;;37.67;32.33;;;;;27.21;34.75;101903.41;5074027;28;45497;-89
2022/06/17 07:57:35;;;;;;;;;11.00;7.67;;;;;27.32;33.99;101919.63;5070346;28;45307;-90
2022/06/17 08:00:03;;;;;;;;;6.00;6.00;;;;;27.26;34.41;101906.56;5071496;28;45473;-90
2022/06/17 08:02:29;;;;;;;;;10.00;6.50;;;;;27.33;34.56;101902.22;5074426;28;46905;-93
2022/06/17 08:04:57;;;;;;;;;9.00;7.00;;;;;27.47;34.11;101915.44;5064484;28;45682;-91
2022/06/17 08:07:23;;;;;;;;;6.67;6.67;;;;;27.62;32.99;101923.16;5072532;28;45517;-86
2022/06/17 08:09:48;;;;;;;;;6.67;6.00;;;;;27.70;33.14;101926.88;5056907;28;45666;-88
2022/06/17 08:12:13;;;;;;;;;6.00;6.00;;;;;27.70;33.04;101917.81;5069873;28;52444;-87
2022/06/17 08:14:47;;;;;;;;;8.33;7.67;;;;;27.82;32.70;101923.94;5067756;28;46064;-87
2022/06/17 08:17:15;;;;;;;;;4.67;4.67;;;;;27.93;33.16;101931.97;5074335;28;45662;-87
2022/06/17 08:19:43;;;;;;;;;7.67;6.00;;;;;27.97;32.83;101919.72;5055559;28;45493;-87
2022/06/17 08:22:10;;;;;;;;;11.00;10.00;;;;;27.92;32.82;101894.63;5065315;28;45386;-89
2022/06/17 08:24:36;;;;;;;;;9.00;7.00;;;;;28.18;32.58;101920.28;5066795;28;45571;-89
2022/06/17 08:27:02;;;;;;;;;7.67;7.67;;;;;28.30;33.16;101914.59;5074564;28;45452;-88
2022/06/17 08:29:28;;;;;;;;;8.00;6.33;;;;;28.38;32.33;101877.16;5071586;28;45509;-87
2022/06/17 08:31:54;;;;;;;;;9.00;7.00;;;;;28.91;30.71;101912.97;5066075;28;46081;-87
2022/06/17 08:34:20;;;;;;;;;7.67;7.33;;;;;29.25;31.06;101885.66;5073956;28;45447;-87
2022/06/17 08:36:46;;;;;;;;;7.00;7.00;;;;;29.59;29.25;101891.13;5075998;28;45473;-88
2022/06/17 08:39:13;;;;;;;;;6.67;5.67;;;;;29.83;29.72;101906.06;5075435;28;45220;-87
2022/06/17 08:42:07;;;;;;;;;6.67;5.33;;;;;29.83;29.46;101892.34;5073454;28;46222;-86
2022/06/17 08:45:06;;;;;;;;;3.00;3.00;;;;;29.82;29.36;101888.69;5073679;28;45741;-87
2022/06/17 08:48:02;;;;;;;;;6.67;6.33;;;;;30.03;30.00;101895.66;5069267;28;45567;-87
2022/06/17 08:51:06;;;;;;;;;8.33;7.00;;;;;30.21;29.39;101890.91;5074491;28;45611;-88
2022/06/17 08:53:41;;;;;;;;;8.00;6.67;;;;;30.38;28.60;101888.22;4993639;28;46095;-88
2022/06/17 08:56:21;;;;;;;;;8.00;8.00;;;;;30.39;28.70;101862.41;4993979;28;45602;-89
2022/06/17 08:59:02;;;;;;;;;6.67;4.67;;;;;30.55;29.48;101869.81;4991578;28;45533;-87
2022/06/17 09:01:39;;;;;;;;;4.67;4.67;;;;;30.91;28.29;101895.16;4994204;28;45686;-87
2022/06/17 09:04:16;;;;;;;;;5.33;5.00;;;;;31.22;27.19;101883.41;4987021;28;47007;-87
2022/06/17 09:07:04;;;;;;;;;6.00;5.33;;;;;31.61;26.54;101877.09;4989436;28;45479;-87
2022/06/17 09:09:58;;;;;;;;;7.67;6.00;;;;;32.15;27.08;101880.00;4994625;28;45700;-87
2022/06/17 09:12:57;;;;;;;;;6.00;6.00;;;;;32.67;26.63;101879.28;4994189;28;45539;-87
2022/06/17 09:15:37;;;;;;;;;5.00;5.00;;;;;33.16;26.04;101872.47;4998060;28;46641;-87
2022/06/17 09:18:22;;;;;;;;;6.33;5.67;;;;;33.52;23.95;101872.56;4994685;28;45778;-87
2022/06/17 09:21:28;;;;;;;;;7.00;6.67;;;;;33.34;24.31;101761.53;5090877;22;45320;-88
2022/06/17 09:24:08;;;;;;;;;5.33;5.33;;;;;34.21;23.18;101871.38;5032887;28;45621;-88
2022/06/17 09:26:54;;;;;;;;;8.00;6.67;;;;;34.56;24.11;101869.59;5077331;28;45651;-85
2022/06/17 09:29:25;;;;;;;;;4.00;4.00;;;;;34.81;23.36;101861.72;5077306;28;45568;-88
2022/06/17 09:31:57;;;;;;;;;5.00;5.00;;;;;34.94;21.59;101835.22;5076467;28;45460;-88
2022/06/17 09:34:39;;;;;;;;;5.00;5.00;;;;;35.50;22.82;101863.72;5076062;28;45577;-86
2022/06/17 09:37:14;;;;;;;;;4.33;4.33;;;;;35.68;21.79;101849.34;5076642;28;46041;-83
2022/06/17 09:39:56;;;;;;;;;7.00;4.67;;;;;36.12;21.52;101855.47;5075368;28;45407;-84
2022/06/17 09:42:28;;;;;;;;;10.00;5.00;;;;;36.48;21.81;101865.38;5067461;28;46365;-85
2022/06/17 09:45:22;;;;;;;;;4.67;4.67;;;;;36.35;20.99;101830.97;5061852;28;45462;-89
2022/06/17 09:47:56;;;;;;;;;4.33;4.33;;;;;36.87;20.00;101867.34;5072700;27;47125;-84
2022/06/17 09:50:30;;;;;;;;;41.67;33.00;;;;;37.11;20.72;101870.53;5070333;28;45510;-89
2022/06/17 09:53:01;;;;;;;;;8.00;8.00;;;;;37.45;20.03;101857.44;5072424;28;45413;-89
2022/06/17 09:55:41;;;;;;;;;7.67;7.67;;;;;37.64;20.62;101845.41;5077494;28;45475;-91
2022/06/17 09:58:23;;;;;;;;;5.33;5.33;;;;;37.91;19.90;101853.59;5077642;28;45390;-94
2022/06/17 10:00:53;;;;;;;;;6.33;6.33;;;;;37.80;20.02;101822.63;5058136;28;45567;-89
2022/06/17 10:03:24;;;;;;;;;5.67;5.00;;;;;37.93;19.80;101806.91;5059356;28;45418;-90
2022/06/17 10:06:27;;;;;;;;;7.00;7.00;;;;;38.49;18.50;101861.88;5077564;28;45408;-96
2022/06/17 10:09:15;;;;;;;;;4.00;4.00;;;;;38.39;18.61;101865.13;5051703;28;47357;-88
2022/06/17 10:11:46;;;;;;;;;7.67;7.67;;;;;38.24;18.61;101806.13;5073065;28;45489;-88
2022/06/17 10:14:25;;;;;;;;;8.67;6.67;;;;;38.63;18.30;101860.72;5077430;28;45407;-89
2022/06/17 10:20:29;;;;;;;;;5.33;5.33;;;;;38.67;18.27;101857.47;5076384;27;45848;-88
2022/06/17 10:23:25;;;;;;;;;7.00;5.67;;;;;38.22;18.92;101749.78;5045641;28;45552;-89
2022/06/17 10:26:28;;;;;;;;;4.33;4.33;;;;;38.83;18.57;101852.16;5066512;28;45862;-87
2022/06/17 10:28:56;;;;;;;;;6.00;6.00;;;;;38.84;17.75;101844.63;5046714;28;45519;-88
2022/06/17 10:36:32;;;;;;;;;4.67;4.00;;;;;38.45;17.73;101804.88;5222442;22;45525;-86
2022/06/17 10:39:10;;;;;;;;;4.00;4.00;;;;;38.40;18.37;101754.53;5075339;28;47753;-88
2022/06/17 10:41:36;;;;;;;;;6.00;6.00;;;;;39.04;16.97;101858.44;5056547;27;45546;-88
2022/06/17 10:44:03;;;;;;;;;5.00;5.00;;;;;38.66;18.17;101788.84;5078802;27;45520;-90
2022/06/17 10:46:32;;;;;;;;;6.00;6.00;;;;;38.95;16.66;101815.19;5078848;27;45394;-90
2022/06/17 10:49:20;;;;;;;;;4.67;4.67;;;;;39.36;17.67;101861.97;5070245;27;45403;-89
2022/06/17 10:51:50;;;;;;;;;4.67;4.67;;;;;39.57;18.14;101862.56;5078021;27;45456;-89
2022/06/17 10:54:23;;;;;;;;;7.33;6.00;;;;;39.72;17.99;101856.59;5081697;27;45620;-89
2022/06/17 10:57:05;;;;;;;;;5.33;5.00;;;;;39.86;17.57;101858.16;5079162;27;45521;-90
2022/06/17 10:59:41;;;;;;;;;5.33;5.33;;;;;39.94;17.64;101856.97;5076771;27;45454;-90
2022/06/17 11:02:29;;;;;;;;;5.33;5.33;;;;;39.94;17.51;101859.78;5067029;28;45549;-90
2022/06/17 11:05:01;;;;;;;;;5.00;5.00;;;;;39.89;17.52;101849.31;5068389;27;45566;-89
2022/06/17 11:07:47;;;;;;;;;5.00;5.00;;;;;39.76;17.09;101838.28;5085296;27;45388;-90
2022/06/17 11:10:13;;;;;;;;;6.67;5.67;;;;;39.64;16.92;101816.78;5084754;28;45328;-88
2022/06/17 11:12:43;;;;;;;;;4.33;4.33;;;;;39.86;17.37;101855.38;5062962;27;46893;-91
2022/06/17 11:15:18;;;;;;;;;5.00;5.00;;;;;39.86;18.00;101855.38;5076005;28;45569;-91
2022/06/17 11:17:50;;;;;;;;;4.00;4.00;;;;;39.63;16.81;101831.78;5077081;27;45435;-92
2022/06/17 11:20:15;;;;;;;;;6.00;6.00;;;;;39.75;17.39;101858.91;5084071;27;45724;-93
2022/06/17 11:22:54;;;;;;;;;4.33;4.33;;;;;39.60;17.55;101848.19;5077038;27;46292;-89
2022/06/17 11:25:31;;;;;;;;;8.00;6.00;;;;;39.53;17.44;101851.03;5071642;28;45511;-90
2022/06/17 11:28:25;;;;;;;;;5.33;5.00;;;;;39.44;17.41;101847.72;5077234;27;45409;-87
2022/06/17 11:31:00;;;;;;;;;8.00;8.00;;;;;39.19;17.49;101813.41;5082417;27;45402;-89
2022/06/17 11:33:35;;;;;;;;;7.00;7.00;;;;;39.30;17.35;101834.97;5074723;28;45427;-87
2022/06/17 11:36:13;;;;;;;;;7.33;6.00;;;;;39.29;17.75;101838.84;5079965;27;45293;-94
2022/06/17 11:38:39;;;;;;;;;5.00;5.00;;;;;39.26;17.78;101839.31;5078302;27;45728;-94
2022/06/17 11:41:06;;;;;;;;;5.00;5.00;;;;;39.04;17.45;101805.44;5070258;27;45347;-92
2022/06/17 11:43:39;;;;;;;;;5.00;5.00;;;;;38.00;18.17;101657.44;5237590;22;47077;-96
2022/06/17 11:46:16;;;;;;;;;5.00;5.00;;;;;38.05;17.29;101670.66;5073313;28;45232;-96
2022/06/17 11:48:51;;;;;;;;;5.33;5.33;;;;;38.66;18.13;101769.34;5080724;28;45366;-96
2022/06/17 11:51:32;;;;;;;;;4.00;4.00;;;;;38.79;17.66;101820.22;5495596;22;45769;-89
2022/06/17 11:54:01;;;;;;;;;5.67;5.67;;;;;38.56;17.52;101809.72;5073403;28;45650;-89
2022/06/17 11:56:30;;;;;;;;;7.00;5.67;;;;;38.45;18.17;101807.66;5075582;28;45580;-89
2022/06/17 11:59:17;;;;;;;;;4.67;4.67;;;;;38.37;17.80;101811.56;5075291;28;45458;-89
2022/06/17 12:02:08;;;;;;;;;6.00;5.00;;;;;37.97;18.00;101758.06;5065474;28;45512;-89